Time;durP1;ratioP1;P1;durP2;ratioP2;P2;SDS_P1;SDS_P2;PMS_P1;PMS_P2;Temp;Humidity;BMP_temperature;BMP_pressure;BME280_temperature;BME280_humidity;BME280_pressure;Samples;Min_cycle;Max_cycle;Signal;HPM_P1;HPM_P2
2023/06/25 00:00:28;;;;;;;11.85;7.65;;;20.60;99.90;;;;;;5031224;28;20626;-66
2023/06/25 00:02:54;;;;;;;9.73;6.93;;;20.50;99.90;;;;;;5031356;28;20041;-66
2023/06/25 00:05:21;;;;;;;10.40;7.70;;;20.40;99.90;;;;;;5029549;28;20071;-67
2023/06/25 00:07:46;;;;;;;11.77;7.30;;;20.40;99.90;;;;;;5030917;28;20025;-66
2023/06/25 00:10:12;;;;;;;12.85;7.28;;;20.40;99.90;;;;;;5031390;28;20132;-67
2023/06/25 00:12:38;;;;;;;12.75;7.72;;;20.30;99.90;;;;;;5031160;28;20033;-67
2023/06/25 00:15:05;;;;;;;11.93;8.05;;;20.30;99.90;;;;;;5031049;28;20107;-66
2023/06/25 00:17:30;;;;;;;10.10;7.22;;;20.30;99.90;;;;;;5030000;28;20095;-66
2023/06/25 00:19:57;;;;;;;10.18;7.07;;;20.20;99.90;;;;;;5030607;28;20348;-67
2023/06/25 00:22:23;;;;;;;11.20;7.72;;;20.20;99.90;;;;;;5031647;28;20022;-66
2023/06/25 00:24:49;;;;;;;10.82;8.07;;;20.20;99.90;;;;;;5030923;28;20056;-67
2023/06/25 00:27:15;;;;;;;10.55;7.25;;;20.10;99.90;;;;;;5030010;28;20057;-68
2023/06/25 00:29:40;;;;;;;10.32;7.28;;;20.10;99.90;;;;;;5030821;28;20460;-68
2023/06/25 00:32:07;;;;;;;12.35;7.65;;;20.10;99.90;;;;;;5030927;28;20027;-67
2023/06/25 00:34:40;;;;;;;10.68;7.53;;;20.10;99.90;;;;;;5031201;28;20631;-67
2023/06/25 00:37:16;;;;;;;14.93;7.55;;;20.10;99.90;;;;;;5029822;28;20029;-68
2023/06/25 00:39:45;;;;;;;9.90;7.43;;;20.00;99.90;;;;;;5030841;28;20034;-67
2023/06/25 00:42:12;;;;;;;10.77;7.70;;;20.00;99.90;;;;;;5030956;28;20029;-67
2023/06/25 00:44:40;;;;;;;18.00;8.45;;;20.00;99.90;;;;;;5031066;28;20029;-67
2023/06/25 00:47:12;;;;;;;15.27;7.60;;;20.10;99.90;;;;;;5029523;28;20448;-66
2023/06/25 00:49:45;;;;;;;11.13;7.15;;;20.00;99.90;;;;;;5031296;28;20030;-67
2023/06/25 00:52:12;;;;;;;15.13;7.38;;;20.00;99.90;;;;;;5030891;28;20082;-68
2023/06/25 00:54:40;;;;;;;12.25;9.18;;;19.90;99.90;;;;;;5030701;28;20040;-67
2023/06/25 00:57:07;;;;;;;12.30;7.95;;;19.90;99.90;;;;;;5030712;28;20056;-68
2023/06/25 00:59:41;;;;;;;11.38;7.47;;;19.90;99.90;;;;;;5062790;28;20083;-66
2023/06/25 01:02:34;;;;;;;11.20;7.15;;;19.80;99.90;;;;;;5030600;28;20029;-67
2023/06/25 01:05:29;;;;;;;20.33;7.90;;;19.80;99.90;;;;;;5025671;28;20052;-67
2023/06/25 01:07:58;;;;;;;14.30;7.30;;;19.80;99.90;;;;;;5029096;28;20400;-67
2023/06/25 01:10:24;;;;;;;10.95;7.85;;;19.80;99.90;;;;;;5063236;28;20044;-67
2023/06/25 01:12:50;;;;;;;13.10;7.88;;;19.70;99.90;;;;;;5030474;28;20034;-68
2023/06/25 01:15:15;;;;;;;11.48;7.90;;;19.70;99.90;;;;;;5030748;28;20371;-67
2023/06/25 01:17:41;;;;;;;12.48;7.57;;;19.70;99.90;;;;;;5030696;28;20036;-67
2023/06/25 01:20:12;;;;;;;11.52;7.60;;;19.70;99.90;;;;;;5030466;28;20029;-68
2023/06/25 01:22:44;;;;;;;14.52;8.65;;;19.70;99.90;;;;;;5030782;28;20116;-66
2023/06/25 01:25:09;;;;;;;13.25;7.75;;;19.60;99.90;;;;;;5030474;28;20045;-68
2023/06/25 01:27:36;;;;;;;12.70;8.38;;;19.60;99.90;;;;;;5030523;28;20045;-67
2023/06/25 01:30:03;;;;;;;12.20;8.00;;;19.60;99.90;;;;;;5030093;28;20436;-68
2023/06/25 01:32:29;;;;;;;11.30;8.05;;;19.60;99.90;;;;;;5062291;28;20171;-68
2023/06/25 01:34:55;;;;;;;9.95;7.28;;;19.60;99.90;;;;;;5032195;28;20053;-68
2023/06/25 01:37:20;;;;;;;11.23;7.35;;;19.50;99.90;;;;;;5071168;28;20099;-67
2023/06/25 01:39:51;;;;;;;13.68;8.38;;;19.40;99.90;;;;;;5073096;28;20086;-66
2023/06/25 01:42:17;;;;;;;16.85;8.30;;;19.40;99.90;;;;;;5073951;28;20025;-68
2023/06/25 01:44:43;;;;;;;13.02;8.80;;;19.40;99.90;;;;;;5074569;28;20407;-67
2023/06/25 01:47:09;;;;;;;10.88;8.15;;;19.40;99.90;;;;;;5074029;28;20488;-68
2023/06/25 01:49:34;;;;;;;12.10;8.48;;;19.40;99.90;;;;;;5074302;28;20071;-66
2023/06/25 01:52:02;;;;;;;11.20;8.15;;;19.40;99.90;;;;;;5074159;28;20064;-68
2023/06/25 01:54:28;;;;;;;10.27;7.75;;;19.40;99.90;;;;;;5074112;28;20036;-68
2023/06/25 01:56:55;;;;;;;12.23;8.25;;;19.40;99.90;;;;;;5073678;28;20042;-67
2023/06/25 01:59:20;;;;;;;11.57;7.75;;;19.50;99.90;;;;;;5073876;28;20104;-67
2023/06/25 02:01:46;;;;;;;12.55;8.30;;;19.40;99.90;;;;;;5074171;28;20416;-68
2023/06/25 02:04:11;;;;;;;16.27;8.50;;;19.50;99.90;;;;;;5073648;28;20031;-66
2023/06/25 02:06:37;;;;;;;13.10;8.15;;;19.50;99.90;;;;;;5072715;28;20047;-67
2023/06/25 02:09:03;;;;;;;12.38;8.18;;;19.50;99.90;;;;;;5073557;28;20033;-67
2023/06/25 02:11:28;;;;;;;10.95;8.32;;;19.50;99.90;;;;;;5073674;28;20063;-68
2023/06/25 02:13:54;;;;;;;11.80;7.95;;;19.40;99.90;;;;;;5074050;28;20040;-67
2023/06/25 02:16:20;;;;;;;11.82;8.68;;;19.40;99.90;;;;;;5074577;28;20416;-67
2023/06/25 02:18:46;;;;;;;14.05;8.25;;;19.40;99.90;;;;;;5073773;28;20025;-67
2023/06/25 02:21:11;;;;;;;12.45;8.35;;;19.40;99.90;;;;;;5073172;28;20119;-67
2023/06/25 02:23:37;;;;;;;12.77;8.02;;;19.40;99.90;;;;;;5073433;28;20035;-67
2023/06/25 02:26:03;;;;;;;13.45;8.27;;;19.30;99.90;;;;;;5073293;28;20028;-67
2023/06/25 02:28:28;;;;;;;12.32;8.45;;;19.30;99.90;;;;;;5073547;28;20422;-68
2023/06/25 02:30:54;;;;;;;16.63;8.95;;;19.30;99.90;;;;;;5072871;28;20049;-68
2023/06/25 02:33:22;;;;;;;11.88;8.13;;;19.30;99.90;;;;;;5072854;28;20025;-67
2023/06/25 02:35:48;;;;;;;14.95;8.55;;;19.40;99.90;;;;;;5071778;28;20040;-67
2023/06/25 02:38:14;;;;;;;10.13;7.22;;;19.30;99.90;;;;;;5072679;28;20029;-67
2023/06/25 02:40:40;;;;;;;10.82;7.57;;;19.30;99.90;;;;;;5073224;28;20107;-67
2023/06/25 02:43:05;;;;;;;14.23;8.20;;;19.30;99.90;;;;;;5072815;28;20462;-67
2023/06/25 02:45:31;;;;;;;8.95;7.30;;;19.30;99.90;;;;;;5072921;28;20112;-67
2023/06/25 02:47:56;;;;;;;11.75;8.25;;;19.20;99.90;;;;;;5071125;28;20122;-67
2023/06/25 02:50:22;;;;;;;10.77;7.60;;;19.10;99.90;;;;;;5071677;28;20064;-67
2023/06/25 02:52:48;;;;;;;11.95;7.95;;;19.20;99.90;;;;;;5072982;28;20110;-67
2023/06/25 02:55:14;;;;;;;12.23;7.30;;;19.20;99.90;;;;;;5072649;28;20029;-68
2023/06/25 02:57:39;;;;;;;11.88;7.65;;;19.10;99.90;;;;;;5071466;28;20128;-67
2023/06/25 03:00:06;;;;;;;14.48;7.60;;;19.10;99.90;;;;;;5071488;28;20098;-68
2023/06/25 03:02:31;;;;;;;11.48;7.15;;;19.10;99.90;;;;;;5071298;28;20037;-68
2023/06/25 03:04:57;;;;;;;10.15;7.30;;;19.10;99.90;;;;;;5072592;28;20086;-67
2023/06/25 03:07:23;;;;;;;10.50;6.75;;;19.10;99.90;;;;;;5072858;28;20019;-67
2023/06/25 03:09:49;;;;;;;14.68;7.28;;;19.10;99.90;;;;;;5071262;28;20116;-68
2023/06/25 03:12:15;;;;;;;9.88;7.85;;;19.10;99.90;;;;;;5072316;28;20029;-69
2023/06/25 03:14:41;;;;;;;15.00;8.00;;;19.00;99.90;;;;;;5070981;28;20044;-68
2023/06/25 03:17:07;;;;;;;15.70;8.25;;;19.10;99.90;;;;;;5072006;28;20028;-68
2023/06/25 03:19:33;;;;;;;10.23;7.50;;;19.00;99.90;;;;;;5072502;28;20028;-67
2023/06/25 03:21:59;;;;;;;12.85;7.45;;;19.00;99.90;;;;;;5070889;28;20032;-67
2023/06/25 03:24:24;;;;;;;11.48;7.60;;;18.90;99.90;;;;;;5072023;28;20046;-67
2023/06/25 03:26:50;;;;;;;10.52;7.88;;;18.90;99.90;;;;;;5071985;28;20036;-68
2023/06/25 03:29:16;;;;;;;13.18;7.78;;;18.90;99.90;;;;;;5070641;28;20028;-68
2023/06/25 03:31:42;;;;;;;10.57;7.07;;;18.90;99.90;;;;;;5072396;28;20120;-70
2023/06/25 03:34:07;;;;;;;13.85;7.38;;;18.80;99.90;;;;;;5071535;28;20032;-68
2023/06/25 03:36:33;;;;;;;10.30;7.18;;;19.00;99.90;;;;;;5070431;28;20086;-69
2023/06/25 03:38:59;;;;;;;11.00;7.18;;;18.90;99.90;;;;;;5071889;28;20040;-68
2023/06/25 03:41:25;;;;;;;13.30;8.05;;;18.90;99.90;;;;;;5070503;28;20037;-68
2023/06/25 03:43:51;;;;;;;13.75;7.80;;;18.90;99.90;;;;;;5071904;28;20024;-68
2023/06/25 03:46:17;;;;;;;11.30;8.07;;;19.00;99.90;;;;;;5071561;28;20451;-70
2023/06/25 03:48:43;;;;;;;11.63;7.68;;;19.00;99.90;;;;;;5070321;28;20043;-67
2023/06/25 03:51:10;;;;;;;13.02;8.20;;;19.00;99.90;;;;;;5071688;28;20369;-69
2023/06/25 03:53:38;;;;;;;10.93;7.80;;;19.00;99.90;;;;;;5071540;28;20083;-69
2023/06/25 03:56:04;;;;;;;12.18;7.38;;;19.10;99.90;;;;;;5071554;28;20036;-69
2023/06/25 03:58:29;;;;;;;10.30;7.05;;;19.00;99.90;;;;;;5071680;28;20020;-68
2023/06/25 04:00:55;;;;;;;9.95;7.60;;;19.00;99.90;;;;;;5069899;28;20079;-68
2023/06/25 04:03:21;;;;;;;10.23;7.05;;;19.10;99.90;;;;;;5071346;28;20102;-68
2023/06/25 04:05:48;;;;;;;9.52;7.20;;;19.10;99.90;;;;;;5071207;28;20288;-66
2023/06/25 04:08:13;;;;;;;12.48;7.25;;;19.10;99.90;;;;;;5071371;28;20039;-68
2023/06/25 04:10:40;;;;;;;11.13;7.45;;;19.10;99.90;;;;;;5071610;28;20024;-67
2023/06/25 04:13:07;;;;;;;11.55;7.15;;;19.10;99.90;;;;;;5071065;28;20111;-68
2023/06/25 04:15:33;;;;;;;12.57;6.80;;;19.20;99.90;;;;;;5071066;28;20037;-68
2023/06/25 04:18:02;;;;;;;10.80;7.18;;;19.20;99.90;;;;;;5071039;28;20048;-69
2023/06/25 04:20:28;;;;;;;12.90;6.95;;;19.20;99.90;;;;;;5069763;28;20037;-67
2023/06/25 04:22:54;;;;;;;10.68;7.32;;;19.30;99.90;;;;;;5070831;28;20368;-67
2023/06/25 04:25:20;;;;;;;9.73;7.05;;;19.30;99.90;;;;;;5070277;28;20032;-66
2023/06/25 04:27:47;;;;;;;12.50;6.93;;;19.30;99.90;;;;;;5070022;28;20033;-68
2023/06/25 04:30:13;;;;;;;11.88;7.18;;;19.30;99.90;;;;;;5070872;28;20544;-67
2023/06/25 04:32:39;;;;;;;10.15;6.90;;;19.40;99.90;;;;;;5070611;28;20430;-66
2023/06/25 04:35:05;;;;;;;14.68;7.03;;;19.40;99.90;;;;;;5069550;28;20020;-67
2023/06/25 04:37:30;;;;;;;9.63;6.45;;;19.40;99.90;;;;;;5071048;28;20078;-67
2023/06/25 04:39:56;;;;;;;10.13;6.65;;;19.40;99.90;;;;;;5070792;28;20037;-67
2023/06/25 04:42:22;;;;;;;10.43;7.00;;;19.50;99.90;;;;;;5070759;28;20336;-66
2023/06/25 04:44:47;;;;;;;9.40;6.63;;;19.50;99.90;;;;;;5070842;28;20041;-66
2023/06/25 04:47:13;;;;;;;10.18;6.45;;;19.50;99.90;;;;;;5069354;28;20029;-67
2023/06/25 04:49:39;;;;;;;10.25;6.68;;;19.60;99.90;;;;;;5071291;28;20028;-66
2023/06/25 04:52:05;;;;;;;9.63;6.30;;;19.60;99.90;;;;;;5070562;28;20032;-66
2023/06/25 04:54:30;;;;;;;9.52;6.63;;;19.70;99.90;;;;;;5071417;28;20108;-66
2023/06/25 04:56:56;;;;;;;11.05;7.00;;;19.60;99.90;;;;;;5071305;28;20033;-66
2023/06/25 04:59:21;;;;;;;9.85;6.55;;;19.70;99.90;;;;;;5072050;28;20044;-69
2023/06/25 05:01:47;;;;;;;9.77;6.50;;;19.70;99.90;;;;;;5072008;28;20024;-67
2023/06/25 05:04:13;;;;;;;9.80;6.00;;;19.80;99.90;;;;;;5071617;28;20521;-66
2023/06/25 05:06:39;;;;;;;8.45;5.72;;;19.90;99.90;;;;;;5071239;28;20051;-67
2023/06/25 05:09:04;;;;;;;11.20;6.28;;;19.90;99.90;;;;;;5071030;28;20067;-67
2023/06/25 05:11:30;;;;;;;9.20;5.93;;;20.00;99.90;;;;;;5071400;28;20028;-67
2023/06/25 05:13:56;;;;;;;8.52;5.72;;;20.00;99.90;;;;;;5075062;28;20033;-68
2023/06/25 05:16:21;;;;;;;8.75;5.55;;;20.10;99.90;;;;;;5076835;28;20370;-68
2023/06/25 05:18:47;;;;;;;11.25;5.78;;;20.20;99.90;;;;;;5076018;28;20107;-68
2023/06/25 05:21:13;;;;;;;9.63;6.07;;;20.20;99.90;;;;;;5074642;28;20029;-67
2023/06/25 05:23:58;;;;;;;9.63;5.47;;;20.30;99.90;;;;;;5075154;28;20124;-68
2023/06/25 05:26:24;;;;;;;8.45;5.10;;;20.30;99.90;;;;;;5074415;28;20475;-68
2023/06/25 05:28:49;;;;;;;12.38;4.97;;;20.40;99.90;;;;;;5074827;28;20053;-66
2023/06/25 05:31:15;;;;;;;8.98;6.63;;;20.40;99.90;;;;;;5074634;28;20383;-68
2023/06/25 05:33:41;;;;;;;16.75;9.20;;;20.50;99.90;;;;;;5076908;28;20485;-68
2023/06/25 05:36:07;;;;;;;10.35;5.97;;;20.50;99.90;;;;;;5076625;28;20098;-68
2023/06/25 05:38:33;;;;;;;7.47;5.35;;;20.60;99.90;;;;;;5075616;28;20451;-67
2023/06/25 05:40:59;;;;;;;9.43;5.13;;;20.60;99.90;;;;;;5075697;28;20029;-67
2023/06/25 05:43:24;;;;;;;7.28;5.05;;;20.70;99.90;;;;;;5075071;28;20067;-67
2023/06/25 05:45:50;;;;;;;8.65;4.93;;;20.80;99.90;;;;;;5073937;28;20217;-67
2023/06/25 05:48:16;;;;;;;9.65;5.68;;;20.90;99.90;;;;;;5073811;28;20040;-67
2023/06/25 05:50:41;;;;;;;13.82;6.05;;;20.90;99.90;;;;;;5073984;28;20423;-66
2023/06/25 05:53:07;;;;;;;12.55;7.00;;;21.00;99.90;;;;;;5072088;28;20082;-66
2023/06/25 05:55:33;;;;;;;8.02;5.30;;;21.10;99.90;;;;;;5074580;28;20051;-67
2023/06/25 05:57:59;;;;;;;9.73;5.28;;;21.20;99.90;;;;;;5073994;28;20474;-68
2023/06/25 06:00:24;;;;;;;6.63;4.72;;;21.30;99.90;;;;;;5073772;28;20033;-67
2023/06/25 06:02:50;;;;;;;10.32;5.05;;;21.30;99.90;;;;;;5073866;28;20107;-66
2023/06/25 06:05:16;;;;;;;17.95;10.90;;;21.40;99.90;;;;;;5074101;28;20020;-66
2023/06/25 06:07:41;;;;;;;8.73;6.18;;;21.50;99.90;;;;;;5068018;28;20017;-69
2023/06/25 06:10:07;;;;;;;7.75;4.75;;;21.50;99.90;;;;;;5053376;28;20032;-67
2023/06/25 06:12:33;;;;;;;9.00;4.72;;;21.70;99.90;;;;;;5054416;28;20025;-68
2023/06/25 06:14:58;;;;;;;7.03;4.82;;;21.80;99.90;;;;;;5054582;28;20060;-67
2023/06/25 06:17:24;;;;;;;8.75;4.55;;;21.80;99.90;;;;;;5054392;28;20408;-68
2023/06/25 06:19:50;;;;;;;10.30;4.85;;;21.90;99.90;;;;;;5053811;28;20032;-67
2023/06/25 06:22:19;;;;;;;7.90;4.47;;;21.90;99.90;;;;;;5054061;28;20040;-67
2023/06/25 06:24:44;;;;;;;10.30;4.88;;;22.00;99.90;;;;;;5054040;28;20136;-66
2023/06/25 06:27:10;;;;;;;7.80;4.75;;;22.00;99.80;;;;;;5054370;28;20510;-66
2023/06/25 06:29:35;;;;;;;6.85;4.97;;;22.00;99.80;;;;;;5053888;28;20045;-66
2023/06/25 06:32:01;;;;;;;7.00;4.60;;;22.10;99.50;;;;;;5053122;28;20450;-66
2023/06/25 06:34:27;;;;;;;7.68;4.20;;;22.20;99.50;;;;;;5053286;28;20029;-67
2023/06/25 06:36:52;;;;;;;4.57;3.85;;;22.20;99.70;;;;;;5052771;28;20026;-65
2023/06/25 06:39:18;;;;;;;5.95;4.25;;;22.40;99.70;;;;;;5053185;28;20033;-66
2023/06/25 06:41:44;;;;;;;5.43;4.70;;;22.40;99.50;;;;;;5053024;28;20040;-66
2023/06/25 06:44:14;;;;;;;12.52;7.85;;;22.50;99.50;;;;;;5052395;28;20039;-66
2023/06/25 06:46:41;;;;;;;9.07;5.03;;;22.60;99.60;;;;;;5053413;28;20033;-66
2023/06/25 06:49:07;;;;;;;8.07;4.82;;;22.70;99.30;;;;;;5052833;28;20140;-66
2023/06/25 06:51:33;;;;;;;5.72;4.35;;;22.80;99.00;;;;;;5051258;28;20033;-66
2023/06/25 06:53:58;;;;;;;8.50;4.93;;;22.80;99.00;;;;;;5052573;28;20036;-66
2023/06/25 06:56:24;;;;;;;12.13;5.53;;;22.90;99.00;;;;;;5052932;28;20037;-67
2023/06/25 06:58:50;;;;;;;8.80;4.40;;;22.90;99.10;;;;;;5053234;28;20366;-65
2023/06/25 07:01:15;;;;;;;5.57;4.22;;;23.00;99.00;;;;;;5053070;28;20044;-66
2023/06/25 07:03:41;;;;;;;5.20;4.32;;;23.10;99.20;;;;;;5052621;28;20025;-65
2023/06/25 07:06:07;;;;;;;5.10;4.35;;;23.20;98.60;;;;;;5052637;28;20048;-66
2023/06/25 07:08:33;;;;;;;10.00;4.47;;;23.30;98.60;;;;;;5051762;28;20108;-67
2023/06/25 07:10:59;;;;;;;7.20;4.78;;;23.40;98.20;;;;;;5052819;28;20082;-65
2023/06/25 07:13:25;;;;;;;5.57;4.18;;;23.50;97.60;;;;;;5053043;28;20028;-67
2023/06/25 07:15:50;;;;;;;6.47;4.53;;;23.60;97.70;;;;;;5051370;28;20029;-64
2023/06/25 07:18:16;;;;;;;6.20;4.45;;;23.80;97.60;;;;;;5052164;28;20033;-66
2023/06/25 07:20:42;;;;;;;7.88;4.25;;;23.90;97.40;;;;;;5051981;28;20091;-65
2023/06/25 07:23:07;;;;;;;9.52;5.25;;;24.10;96.80;;;;;;5051722;28;20462;-66
2023/06/25 07:25:34;;;;;;;7.13;4.20;;;24.10;96.40;;;;;;5052201;28;20033;-67
2023/06/25 07:28:00;;;;;;;6.60;4.60;;;24.10;96.60;;;;;;5051888;28;20029;-66
2023/06/25 07:30:26;;;;;;;6.35;4.88;;;24.20;96.10;;;;;;5045851;28;20137;-65
2023/06/25 07:32:51;;;;;;;5.25;4.20;;;24.20;95.80;;;;;;5031738;28;20132;-66
2023/06/25 07:35:17;;;;;;;4.53;4.07;;;24.30;96.00;;;;;;5031284;28;20039;-68
2023/06/25 07:37:43;;;;;;;8.05;4.55;;;24.40;95.70;;;;;;5032502;28;20467;-65
2023/06/25 07:40:09;;;;;;;6.10;4.28;;;24.40;95.50;;;;;;5031934;28;20041;-65
2023/06/25 07:42:34;;;;;;;6.50;4.40;;;24.50;95.50;;;;;;5032112;28;20037;-65
2023/06/25 07:45:00;;;;;;;6.75;4.30;;;24.50;95.10;;;;;;5031941;28;20063;-66
2023/06/25 07:47:26;;;;;;;4.63;3.92;;;24.60;95.70;;;;;;5031645;28;20128;-66
2023/06/25 07:49:52;;;;;;;8.88;4.43;;;24.70;94.90;;;;;;5032502;28;20447;-67
2023/06/25 07:52:17;;;;;;;5.40;3.97;;;24.90;94.70;;;;;;5053132;28;20175;-66
2023/06/25 07:54:43;;;;;;;9.25;4.68;;;24.90;94.30;;;;;;5052387;28;20037;-67
2023/06/25 07:57:09;;;;;;;9.10;4.53;;;25.10;94.50;;;;;;5035030;28;20036;-67
2023/06/25 07:59:34;;;;;;;6.05;3.78;;;25.20;93.80;;;;;;5052262;28;20033;-67
2023/06/25 08:02:00;;;;;;;5.65;3.83;;;25.30;93.80;;;;;;5052286;28;20031;-67
2023/06/25 08:04:26;;;;;;;6.82;4.45;;;25.60;94.20;;;;;;5052649;28;20025;-66
2023/06/25 08:06:52;;;;;;;6.45;4.35;;;25.70;92.70;;;;;;5052404;28;20025;-67
2023/06/25 08:09:17;;;;;;;7.43;3.90;;;25.80;93.20;;;;;;5052403;28;20049;-67
2023/06/25 08:11:43;;;;;;;6.05;3.88;;;26.00;92.40;;;;;;5053094;28;20333;-68
2023/06/25 08:14:09;;;;;;;6.70;3.90;;;26.10;92.10;;;;;;5052509;28;20459;-66
2023/06/25 08:16:35;;;;;;;6.75;4.05;;;26.10;91.70;;;;;;5052514;28;20021;-66
2023/06/25 08:19:00;;;;;;;7.00;4.47;;;26.20;91.40;;;;;;5050652;28;20094;-66
2023/06/25 08:21:26;;;;;;;6.60;3.80;;;26.20;91.10;;;;;;5051979;28;20037;-68
2023/06/25 08:23:52;;;;;;;5.82;4.03;;;26.40;91.00;;;;;;5050484;28;20029;-68
2023/06/25 08:26:18;;;;;;;6.47;4.40;;;26.50;90.40;;;;;;5052238;28;20029;-70
2023/06/25 08:28:44;;;;;;;4.82;3.97;;;26.60;90.50;;;;;;5052525;28;20029;-69
2023/06/25 08:31:10;;;;;;;7.72;4.53;;;26.70;90.20;;;;;;5052087;28;20056;-70
2023/06/25 08:33:37;;;;;;;5.10;4.10;;;26.90;90.90;;;;;;5050746;28;20149;-70
2023/06/25 08:36:03;;;;;;;5.00;3.60;;;27.20;88.70;;;;;;5051362;28;20029;-72
2023/06/25 08:38:30;;;;;;;7.13;4.65;;;27.50;88.40;;;;;;5051483;28;20040;-70
2023/06/25 08:40:56;;;;;;;10.38;4.13;;;28.10;88.20;;;;;;5051710;28;20482;-70
2023/06/25 08:43:22;;;;;;;6.70;4.18;;;29.00;86.90;;;;;;5052008;28;20047;-70
2023/06/25 08:45:48;;;;;;;6.97;4.07;;;29.80;82.10;;;;;;5051634;28;20467;-69
2023/06/25 08:48:14;;;;;;;9.80;4.10;;;30.40;81.00;;;;;;5050249;28;20029;-69
2023/06/25 08:50:48;;;;;;;4.53;3.67;;;30.70;78.50;;;;;;5050867;28;20041;-67
2023/06/25 08:53:13;;;;;;;6.40;3.80;;;31.30;78.70;;;;;;5050986;28;20033;-68
2023/06/25 08:55:41;;;;;;;8.82;3.60;;;31.60;75.40;;;;;;5051954;28;20154;-68
2023/06/25 08:58:07;;;;;;;5.10;3.72;;;32.30;72.20;;;;;;5051215;28;20033;-69
2023/06/25 09:00:32;;;;;;;13.15;5.03;;;32.50;71.10;;;;;;5051247;28;20036;-69
2023/06/25 09:02:58;;;;;;;4.90;3.75;;;32.80;71.20;;;;;;5051324;28;20466;-69
2023/06/25 09:05:26;;;;;;;5.40;3.67;;;32.80;71.90;;;;;;5051108;28;20124;-67
2023/06/25 09:07:51;;;;;;;;;;;33.20;67.00;;;;;;5051886;28;20025;-69
2023/06/25 09:10:19;;;;;;;6.00;3.97;;;33.20;64.00;;;;;;5051457;28;20235;-67
2023/06/25 09:12:47;;;;;;;8.95;4.13;;;33.60;66.70;;;;;;5051102;28;20471;-67
2023/06/25 09:15:17;;;;;;;4.80;3.30;;;33.80;64.30;;;;;;5051132;28;20128;-67
2023/06/25 09:17:43;;;;;;;3.97;3.33;;;32.90;61.50;;;;;;5050022;28;20393;-67
2023/06/25 09:20:09;;;;;;;5.50;3.92;;;32.10;63.40;;;;;;5050776;28;20144;-68
2023/06/25 09:22:49;;;;;;;7.78;4.68;;;31.80;64.10;;;;;;5051420;28;20086;-68
2023/06/25 09:25:14;;;;;;;4.80;3.78;;;31.70;64.60;;;;;;5051294;28;20025;-67
2023/06/25 09:27:40;;;;;;;6.32;4.10;;;31.40;66.40;;;;;;5050809;28;20128;-67
2023/06/25 09:30:10;;;;;;;4.82;3.58;;;31.50;66.70;;;;;;5050685;28;20041;-68
2023/06/25 09:32:46;;;;;;;5.18;3.80;;;31.00;65.50;;;;;;5050817;28;20120;-68
2023/06/25 09:35:28;;;;;;;5.47;3.83;;;30.90;66.30;;;;;;5050663;28;20452;-67
2023/06/25 09:37:54;;;;;;;8.68;4.40;;;30.70;67.60;;;;;;5051370;28;20029;-66
2023/06/25 09:40:20;;;;;;;6.10;3.90;;;30.80;68.60;;;;;;5049737;28;20473;-67
2023/06/25 09:42:48;;;;;;;5.75;4.10;;;30.80;68.40;;;;;;5050322;28;20021;-66
2023/06/25 09:45:15;;;;;;;9.10;3.80;;;30.70;69.30;;;;;;5049939;28;20021;-68
2023/06/25 09:47:46;;;;;;;8.30;4.13;;;30.70;68.00;;;;;;5049852;28;20037;-66
2023/06/25 09:50:22;;;;;;;4.32;3.78;;;30.50;68.60;;;;;;5049793;28;20116;-68
2023/06/25 09:52:55;;;;;;;4.60;4.10;;;30.50;68.80;;;;;;5049820;28;20044;-66
2023/06/25 09:55:21;;;;;;;4.70;4.03;;;30.40;68.20;;;;;;5049774;28;20043;-67
2023/06/25 09:57:47;;;;;;;6.57;3.75;;;30.40;67.00;;;;;;5050051;28;20128;-68
2023/06/25 10:00:15;;;;;;;4.30;3.37;;;30.40;66.50;;;;;;5053152;28;20044;-68
2023/06/25 10:02:41;;;;;;;5.55;4.07;;;30.40;66.70;;;;;;5053640;28;20091;-68
2023/06/25 10:05:06;;;;;;;6.63;4.57;;;30.20;68.70;;;;;;5053350;28;20033;-68
2023/06/25 10:07:32;;;;;;;4.40;3.63;;;30.50;66.80;;;;;;5054018;28;20397;-67
2023/06/25 10:09:58;;;;;;;6.30;4.20;;;30.20;65.80;;;;;;5053335;28;20045;-67
2023/06/25 10:12:24;;;;;;;6.88;4.00;;;30.30;68.50;;;;;;5053378;28;20683;-66
2023/06/25 10:14:50;;;;;;;4.50;3.40;;;30.60;69.40;;;;;;5052005;28;20126;-68
2023/06/25 10:17:18;;;;;;;4.40;4.00;;;30.60;68.60;;;;;;5053385;28;20056;-68
2023/06/25 10:19:58;;;;;;;5.22;4.05;;;30.70;66.90;;;;;;5053605;28;20107;-67
2023/06/25 10:22:25;;;;;;;5.13;3.83;;;30.40;65.20;;;;;;5052227;28;20282;-68
2023/06/25 10:24:53;;;;;;;4.55;3.75;;;30.60;66.40;;;;;;5053106;28;20025;-67
2023/06/25 10:27:29;;;;;;;4.45;4.05;;;30.70;66.40;;;;;;5053049;28;20090;-68
2023/06/25 10:29:56;;;;;;;4.13;3.63;;;30.50;65.70;;;;;;5051671;28;20379;-66
2023/06/25 10:32:29;;;;;;;6.03;3.47;;;30.40;65.80;;;;;;5053068;28;20063;-70
2023/06/25 10:34:58;;;;;;;5.43;3.60;;;30.40;66.30;;;;;;5052730;28;20028;-68
2023/06/25 10:37:32;;;;;;;6.22;4.10;;;30.50;66.20;;;;;;5053365;28;20490;-67
2023/06/25 10:40:07;;;;;;;5.45;3.42;;;30.40;65.00;;;;;;5051681;28;20059;-68
2023/06/25 10:42:33;;;;;;;5.25;3.63;;;30.40;65.20;;;;;;5052678;28;20421;-68
2023/06/25 10:45:05;;;;;;;7.00;4.65;;;30.40;65.30;;;;;;5052765;28;20136;-65
2023/06/25 10:47:30;;;;;;;4.68;3.80;;;30.40;66.30;;;;;;5052551;28;20029;-66
2023/06/25 10:49:56;;;;;;;4.72;3.85;;;30.40;64.00;;;;;;5052548;28;20035;-67
2023/06/25 10:52:22;;;;;;;4.38;3.92;;;30.20;64.60;;;;;;5053000;28;20099;-67
2023/06/25 10:54:47;;;;;;;7.35;3.47;;;30.20;65.40;;;;;;5052275;28;20036;-68
2023/06/25 10:57:15;;;;;;;5.32;4.05;;;30.20;65.90;;;;;;5052436;28;20021;-69
2023/06/25 10:59:44;;;;;;;5.70;3.90;;;30.20;64.50;;;;;;5052181;28;20425;-69
2023/06/25 11:02:21;;;;;;;5.90;4.38;;;30.20;64.80;;;;;;5052553;28;20044;-68
2023/06/25 11:04:55;;;;;;;5.18;3.92;;;30.30;66.40;;;;;;5052856;28;20029;-69
2023/06/25 11:07:22;;;;;;;5.07;4.20;;;30.10;65.50;;;;;;5052536;28;20026;-68
2023/06/25 11:09:58;;;;;;;4.67;3.77;;;30.10;67.50;;;;;;5050480;28;20727;-68
2023/06/25 11:12:25;;;;;;;9.23;4.28;;;30.20;67.00;;;;;;5051848;28;20258;-67
2023/06/25 11:14:50;;;;;;;8.98;4.38;;;30.10;67.20;;;;;;5049338;28;20041;-67
2023/06/25 11:17:19;;;;;;;10.02;7.88;;;30.00;67.50;;;;;;5053468;28;20031;-68
2023/06/25 11:19:53;;;;;;;4.78;3.85;;;30.10;67.90;;;;;;5053540;28;20033;-67
2023/06/25 11:22:20;;;;;;;4.72;3.97;;;30.10;67.00;;;;;;5052974;28;20052;-68
2023/06/25 11:24:45;;;;;;;4.67;3.77;;;30.00;66.70;;;;;;5052561;28;20379;-67
2023/06/25 11:27:11;;;;;;;5.18;3.92;;;29.90;66.50;;;;;;5052711;28;20277;-67
2023/06/25 11:29:39;;;;;;;6.55;3.80;;;29.90;66.70;;;;;;5052574;28;20052;-67
2023/06/25 11:32:07;;;;;;;;;;;29.90;65.30;;;;;;5052970;28;20068;-68
2023/06/25 11:34:34;;;;;;;5.85;3.97;;;29.90;67.40;;;;;;5053425;28;19916;-68
2023/06/25 11:37:13;;;;;;;6.82;4.22;;;29.90;66.80;;;;;;5052875;28;20033;-68
2023/06/25 11:39:52;;;;;;;7.10;4.00;;;30.00;66.80;;;;;;5052660;28;20367;-67
2023/06/25 11:42:20;;;;;;;5.30;4.03;;;30.10;68.10;;;;;;5052491;28;20528;-68
2023/06/25 11:45:01;;;;;;;7.43;4.90;;;30.00;66.90;;;;;;5052360;28;20032;-69
2023/06/25 11:47:27;;;;;;;6.10;4.03;;;30.00;66.60;;;;;;5052345;28;20052;-68
2023/06/25 11:49:57;;;;;;;5.15;3.97;;;30.00;67.50;;;;;;5052309;28;20443;-67
2023/06/25 11:52:23;;;;;;;5.03;3.90;;;30.00;68.70;;;;;;5051833;28;20049;-68
2023/06/25 11:54:49;;;;;;;4.80;4.03;;;30.10;69.70;;;;;;5052213;28;20068;-66
2023/06/25 11:57:15;;;;;;;8.27;4.65;;;30.10;68.70;;;;;;5052234;28;20072;-67
2023/06/25 11:59:42;;;;;;;6.60;4.40;;;30.10;70.00;;;;;;5052512;28;20033;-68
2023/06/25 12:02:07;;;;;;;5.65;4.43;;;30.10;69.60;;;;;;5051113;28;20035;-68
2023/06/25 12:04:33;;;;;;;5.38;3.95;;;30.10;68.70;;;;;;5052431;28;20111;-67
2023/06/25 12:06:59;;;;;;;4.78;3.72;;;30.10;69.10;;;;;;5052075;28;20078;-66
2023/06/25 12:09:24;;;;;;;4.53;3.85;;;30.10;69.20;;;;;;5052014;28;20067;-67
2023/06/25 12:11:50;;;;;;;7.25;4.07;;;30.10;69.30;;;;;;5051401;28;20029;-69
2023/06/25 12:14:16;;;;;;;6.50;3.50;;;30.20;68.80;;;;;;5051529;28;20032;-69
2023/06/25 12:16:42;;;;;;;5.57;4.05;;;30.10;69.50;;;;;;5052437;28;20103;-67
2023/06/25 12:19:08;;;;;;;5.18;4.20;;;29.90;69.30;;;;;;5052217;28;20434;-67
2023/06/25 12:21:33;;;;;;;7.63;4.15;;;29.90;69.70;;;;;;5051892;28;20036;-66
2023/06/25 12:23:59;;;;;;;4.90;3.85;;;29.80;70.40;;;;;;5051516;28;20365;-68
2023/06/25 12:26:25;;;;;;;7.03;4.35;;;29.80;70.60;;;;;;5051925;28;20546;-67
2023/06/25 12:28:50;;;;;;;6.47;4.18;;;29.90;71.20;;;;;;5050683;28;20455;-68
2023/06/25 12:31:16;;;;;;;5.55;3.95;;;30.00;71.80;;;;;;5050293;28;20099;-69
2023/06/25 12:33:42;;;;;;;7.72;4.68;;;30.00;70.80;;;;;;5051515;28;20040;-67
2023/06/25 12:36:08;;;;;;;5.95;4.32;;;30.10;71.20;;;;;;5051527;28;20033;-66
2023/06/25 12:38:34;;;;;;;6.40;4.35;;;30.00;69.00;;;;;;5051540;28;20037;-67
2023/06/25 12:41:00;;;;;;;5.93;4.32;;;29.90;69.80;;;;;;5051611;28;20359;-67